sensor_id;sensor_type;location;lat;lon;timestamp;P1;durP1;ratioP1;P2;durP2;ratioP2
70592;SDS011;58294;42.988;20.338;2023-10-19T00:00:33;51.25;;;36.83;;
70592;SDS011;58294;42.988;20.338;2023-10-19T00:03:01;59.38;;;42.42;;
70592;SDS011;58294;42.988;20.338;2023-10-19T00:05:28;51.90;;;40.92;;
70592;SDS011;58294;42.988;20.338;2023-10-19T00:07:55;51.00;;;38.85;;
70592;SDS011;58294;42.988;20.338;2023-10-19T00:10:23;50.53;;;36.10;;
70592;SDS011;58294;42.988;20.338;2023-10-19T00:12:51;49.20;;;36.38;;
70592;SDS011;58294;42.988;20.338;2023-10-19T00:15:29;51.80;;;34.85;;
70592;SDS011;58294;42.988;20.338;2023-10-19T00:17:57;40.22;;;30.00;;
70592;SDS011;58294;42.988;20.338;2023-10-19T00:20:42;39.92;;;26.10;;
70592;SDS011;58294;42.988;20.338;2023-10-19T00:23:10;35.78;;;27.52;;
70592;SDS011;58294;42.988;20.338;2023-10-19T00:25:38;38.65;;;25.33;;
70592;SDS011;58294;42.988;20.338;2023-10-19T00:28:07;34.30;;;23.80;;
70592;SDS011;58294;42.988;20.338;2023-10-19T00:30:34;29.30;;;21.40;;
70592;SDS011;58294;42.988;20.338;2023-10-19T00:33:02;35.85;;;21.15;;
70592;SDS011;58294;42.988;20.338;2023-10-19T00:35:30;29.02;;;20.58;;
70592;SDS011;58294;42.988;20.338;2023-10-19T00:38:07;31.80;;;22.10;;
70592;SDS011;58294;42.988;20.338;2023-10-19T00:40:52;26.33;;;21.75;;
70592;SDS011;58294;42.988;20.338;2023-10-19T00:43:29;30.60;;;22.05;;
70592;SDS011;58294;42.988;20.338;2023-10-19T00:46:08;32.13;;;21.73;;
70592;SDS011;58294;42.988;20.338;2023-10-19T00:48:44;28.67;;;20.67;;
70592;SDS011;58294;42.988;20.338;2023-10-19T00:51:12;26.00;;;20.90;;
70592;SDS011;58294;42.988;20.338;2023-10-19T00:53:58;29.80;;;20.75;;
70592;SDS011;58294;42.988;20.338;2023-10-19T00:56:36;25.98;;;20.15;;
70592;SDS011;58294;42.988;20.338;2023-10-19T00:59:02;26.83;;;21.73;;
70592;SDS011;58294;42.988;20.338;2023-10-19T01:01:39;29.63;;;21.60;;
70592;SDS011;58294;42.988;20.338;2023-10-19T01:04:12;23.15;;;20.27;;
70592;SDS011;58294;42.988;20.338;2023-10-19T01:06:40;31.67;;;25.70;;
70592;SDS011;58294;42.988;20.338;2023-10-19T01:09:12;36.95;;;27.27;;
70592;SDS011;58294;42.988;20.338;2023-10-19T01:11:43;39.15;;;28.15;;
70592;SDS011;58294;42.988;20.338;2023-10-19T01:14:20;37.78;;;26.27;;
70592;SDS011;58294;42.988;20.338;2023-10-19T01:16:47;32.33;;;24.30;;
70592;SDS011;58294;42.988;20.338;2023-10-19T01:19:15;35.15;;;25.77;;
70592;SDS011;58294;42.988;20.338;2023-10-19T01:21:43;34.55;;;25.40;;
70592;SDS011;58294;42.988;20.338;2023-10-19T01:24:17;36.75;;;27.70;;
70592;SDS011;58294;42.988;20.338;2023-10-19T01:26:54;40.10;;;27.83;;
70592;SDS011;58294;42.988;20.338;2023-10-19T01:29:22;38.33;;;28.23;;
70592;SDS011;58294;42.988;20.338;2023-10-19T01:31:52;45.15;;;30.80;;
70592;SDS011;58294;42.988;20.338;2023-10-19T01:34:21;38.03;;;31.02;;
70592;SDS011;58294;42.988;20.338;2023-10-19T01:36:47;43.10;;;31.17;;
70592;SDS011;58294;42.988;20.338;2023-10-19T01:39:16;42.78;;;30.15;;
70592;SDS011;58294;42.988;20.338;2023-10-19T01:41:44;37.90;;;28.58;;
70592;SDS011;58294;42.988;20.338;2023-10-19T01:44:10;40.47;;;29.05;;
70592;SDS011;58294;42.988;20.338;2023-10-19T01:46:40;38.63;;;28.58;;
70592;SDS011;58294;42.988;20.338;2023-10-19T01:49:09;36.08;;;28.23;;
70592;SDS011;58294;42.988;20.338;2023-10-19T01:51:35;36.10;;;26.05;;
70592;SDS011;58294;42.988;20.338;2023-10-19T01:54:03;33.95;;;25.20;;
70592;SDS011;58294;42.988;20.338;2023-10-19T01:56:31;36.67;;;26.23;;
70592;SDS011;58294;42.988;20.338;2023-10-19T01:59:00;36.40;;;26.23;;
70592;SDS011;58294;42.988;20.338;2023-10-19T02:01:28;36.42;;;26.33;;
70592;SDS011;58294;42.988;20.338;2023-10-19T02:03:55;37.47;;;26.98;;
70592;SDS011;58294;42.988;20.338;2023-10-19T02:06:25;40.00;;;28.05;;
70592;SDS011;58294;42.988;20.338;2023-10-19T02:11:41;38.45;;;26.23;;
70592;SDS011;58294;42.988;20.338;2023-10-19T02:14:07;37.80;;;28.13;;
70592;SDS011;58294;42.988;20.338;2023-10-19T02:16:39;43.60;;;30.48;;
70592;SDS011;58294;42.988;20.338;2023-10-19T02:19:06;39.38;;;29.40;;
70592;SDS011;58294;42.988;20.338;2023-10-19T02:21:32;39.35;;;30.67;;
70592;SDS011;58294;42.988;20.338;2023-10-19T02:24:04;57.67;;;39.88;;
70592;SDS011;58294;42.988;20.338;2023-10-19T02:26:32;48.70;;;33.05;;
70592;SDS011;58294;42.988;20.338;2023-10-19T02:28:58;35.78;;;28.80;;
70592;SDS011;58294;42.988;20.338;2023-10-19T02:31:24;32.75;;;26.35;;
70592;SDS011;58294;42.988;20.338;2023-10-19T02:33:51;36.90;;;25.42;;
70592;SDS011;58294;42.988;20.338;2023-10-19T02:36:24;39.70;;;24.48;;
70592;SDS011;58294;42.988;20.338;2023-10-19T02:39:03;36.85;;;25.77;;
70592;SDS011;58294;42.988;20.338;2023-10-19T02:41:36;31.35;;;24.80;;
70592;SDS011;58294;42.988;20.338;2023-10-19T02:44:13;37.10;;;27.85;;
70592;SDS011;58294;42.988;20.338;2023-10-19T02:46:43;30.92;;;22.98;;
70592;SDS011;58294;42.988;20.338;2023-10-19T02:49:10;25.35;;;22.40;;
70592;SDS011;58294;42.988;20.338;2023-10-19T02:51:38;32.78;;;26.55;;
70592;SDS011;58294;42.988;20.338;2023-10-19T02:54:06;26.35;;;20.95;;
70592;SDS011;58294;42.988;20.338;2023-10-19T02:56:34;27.23;;;21.98;;
70592;SDS011;58294;42.988;20.338;2023-10-19T02:59:01;29.10;;;22.27;;
70592;SDS011;58294;42.988;20.338;2023-10-19T03:01:30;28.42;;;21.73;;
70592;SDS011;58294;42.988;20.338;2023-10-19T03:03:59;32.42;;;25.38;;
70592;SDS011;58294;42.988;20.338;2023-10-19T03:06:27;28.05;;;22.90;;
70592;SDS011;58294;42.988;20.338;2023-10-19T03:09:03;29.75;;;24.20;;
70592;SDS011;58294;42.988;20.338;2023-10-19T03:11:39;29.02;;;24.45;;
70592;SDS011;58294;42.988;20.338;2023-10-19T03:14:09;31.92;;;26.48;;
70592;SDS011;58294;42.988;20.338;2023-10-19T03:16:37;43.53;;;34.88;;
70592;SDS011;58294;42.988;20.338;2023-10-19T03:19:07;52.65;;;36.13;;
70592;SDS011;58294;42.988;20.338;2023-10-19T03:21:33;36.72;;;28.70;;
70592;SDS011;58294;42.988;20.338;2023-10-19T03:24:10;31.00;;;25.17;;
70592;SDS011;58294;42.988;20.338;2023-10-19T03:26:57;29.27;;;24.58;;
70592;SDS011;58294;42.988;20.338;2023-10-19T03:29:24;41.53;;;32.05;;
70592;SDS011;58294;42.988;20.338;2023-10-19T03:31:57;36.58;;;28.23;;
70592;SDS011;58294;42.988;20.338;2023-10-19T03:34:26;36.38;;;27.85;;
70592;SDS011;58294;42.988;20.338;2023-10-19T03:36:52;35.33;;;27.40;;
70592;SDS011;58294;42.988;20.338;2023-10-19T03:39:19;38.22;;;27.25;;
70592;SDS011;58294;42.988;20.338;2023-10-19T03:41:46;29.80;;;24.90;;
70592;SDS011;58294;42.988;20.338;2023-10-19T03:44:15;27.95;;;24.05;;
70592;SDS011;58294;42.988;20.338;2023-10-19T03:46:49;34.95;;;26.83;;
70592;SDS011;58294;42.988;20.338;2023-10-19T03:49:21;32.28;;;26.88;;
70592;SDS011;58294;42.988;20.338;2023-10-19T03:51:48;31.08;;;26.08;;
70592;SDS011;58294;42.988;20.338;2023-10-19T03:54:27;33.92;;;27.40;;
70592;SDS011;58294;42.988;20.338;2023-10-19T03:56:53;39.17;;;27.25;;
70592;SDS011;58294;42.988;20.338;2023-10-19T03:59:22;33.55;;;26.83;;
70592;SDS011;58294;42.988;20.338;2023-10-19T04:01:54;30.83;;;24.70;;
70592;SDS011;58294;42.988;20.338;2023-10-19T04:04:20;28.15;;;23.23;;
70592;SDS011;58294;42.988;20.338;2023-10-19T04:06:46;28.38;;;21.23;;
70592;SDS011;58294;42.988;20.338;2023-10-19T04:09:13;24.58;;;21.95;;
70592;SDS011;58294;42.988;20.338;2023-10-19T04:11:42;31.50;;;23.05;;
70592;SDS011;58294;42.988;20.338;2023-10-19T04:14:15;24.17;;;20.35;;
70592;SDS011;58294;42.988;20.338;2023-10-19T04:16:41;27.35;;;21.05;;
70592;SDS011;58294;42.988;20.338;2023-10-19T04:19:13;25.05;;;21.35;;
70592;SDS011;58294;42.988;20.338;2023-10-19T04:21:39;31.70;;;21.98;;
70592;SDS011;58294;42.988;20.338;2023-10-19T04:24:09;26.25;;;20.92;;
70592;SDS011;58294;42.988;20.338;2023-10-19T04:26:36;26.67;;;21.30;;
70592;SDS011;58294;42.988;20.338;2023-10-19T04:29:05;26.30;;;23.05;;
70592;SDS011;58294;42.988;20.338;2023-10-19T04:31:42;27.38;;;23.15;;
70592;SDS011;58294;42.988;20.338;2023-10-19T04:34:19;28.60;;;20.88;;
70592;SDS011;58294;42.988;20.338;2023-10-19T04:36:49;25.80;;;20.35;;
70592;SDS011;58294;42.988;20.338;2023-10-19T04:39:16;27.02;;;21.52;;
70592;SDS011;58294;42.988;20.338;2023-10-19T04:41:44;28.73;;;20.55;;
70592;SDS011;58294;42.988;20.338;2023-10-19T04:44:13;25.65;;;19.67;;
70592;SDS011;58294;42.988;20.338;2023-10-19T04:46:41;21.25;;;18.63;;
70592;SDS011;58294;42.988;20.338;2023-10-19T04:49:07;24.73;;;18.77;;
70592;SDS011;58294;42.988;20.338;2023-10-19T04:51:33;20.10;;;17.20;;
70592;SDS011;58294;42.988;20.338;2023-10-19T04:54:03;21.98;;;16.67;;
70592;SDS011;58294;42.988;20.338;2023-10-19T04:56:30;19.77;;;16.63;;
70592;SDS011;58294;42.988;20.338;2023-10-19T04:58:57;26.02;;;17.60;;
70592;SDS011;58294;42.988;20.338;2023-10-19T05:01:23;20.58;;;16.60;;
70592;SDS011;58294;42.988;20.338;2023-10-19T05:03:48;23.35;;;17.30;;
70592;SDS011;58294;42.988;20.338;2023-10-19T05:06:14;18.85;;;16.73;;
70592;SDS011;58294;42.988;20.338;2023-10-19T05:08:40;20.25;;;17.13;;
70592;SDS011;58294;42.988;20.338;2023-10-19T05:11:06;21.83;;;19.40;;
70592;SDS011;58294;42.988;20.338;2023-10-19T05:13:32;26.88;;;21.90;;
70592;SDS011;58294;42.988;20.338;2023-10-19T05:15:58;23.52;;;20.38;;
70592;SDS011;58294;42.988;20.338;2023-10-19T05:18:24;22.33;;;17.83;;
70592;SDS011;58294;42.988;20.338;2023-10-19T05:20:51;25.30;;;19.63;;
70592;SDS011;58294;42.988;20.338;2023-10-19T05:23:22;28.90;;;22.75;;
70592;SDS011;58294;42.988;20.338;2023-10-19T05:25:49;24.98;;;21.27;;
70592;SDS011;58294;42.988;20.338;2023-10-19T05:28:33;25.92;;;20.75;;
70592;SDS011;58294;42.988;20.338;2023-10-19T05:30:59;26.83;;;20.00;;
70592;SDS011;58294;42.988;20.338;2023-10-19T05:33:25;22.98;;;20.55;;
70592;SDS011;58294;42.988;20.338;2023-10-19T05:35:52;27.80;;;22.50;;
70592;SDS011;58294;42.988;20.338;2023-10-19T05:38:18;28.20;;;22.48;;
70592;SDS011;58294;42.988;20.338;2023-10-19T05:40:52;29.08;;;24.98;;
70592;SDS011;58294;42.988;20.338;2023-10-19T05:43:20;29.20;;;23.77;;
70592;SDS011;58294;42.988;20.338;2023-10-19T05:45:46;27.75;;;22.45;;
70592;SDS011;58294;42.988;20.338;2023-10-19T05:48:15;28.38;;;20.45;;
70592;SDS011;58294;42.988;20.338;2023-10-19T05:50:41;20.15;;;18.05;;
70592;SDS011;58294;42.988;20.338;2023-10-19T05:53:07;20.35;;;16.88;;
70592;SDS011;58294;42.988;20.338;2023-10-19T05:55:33;21.05;;;17.80;;
70592;SDS011;58294;42.988;20.338;2023-10-19T05:58:01;24.23;;;19.20;;
70592;SDS011;58294;42.988;20.338;2023-10-19T06:00:30;25.35;;;19.17;;
70592;SDS011;58294;42.988;20.338;2023-10-19T06:02:56;30.38;;;21.00;;
70592;SDS011;58294;42.988;20.338;2023-10-19T06:05:23;24.30;;;18.90;;
70592;SDS011;58294;42.988;20.338;2023-10-19T06:07:49;32.25;;;22.42;;
70592;SDS011;58294;42.988;20.338;2023-10-19T06:10:17;29.30;;;21.02;;
70592;SDS011;58294;42.988;20.338;2023-10-19T06:12:45;28.67;;;23.27;;
70592;SDS011;58294;42.988;20.338;2023-10-19T06:15:13;31.35;;;24.67;;
70592;SDS011;58294;42.988;20.338;2023-10-19T06:17:41;33.60;;;27.00;;
70592;SDS011;58294;42.988;20.338;2023-10-19T06:20:10;35.40;;;26.33;;
70592;SDS011;58294;42.988;20.338;2023-10-19T06:22:56;30.35;;;26.33;;
70592;SDS011;58294;42.988;20.338;2023-10-19T06:25:29;30.70;;;25.95;;
70592;SDS011;58294;42.988;20.338;2023-10-19T06:27:55;39.35;;;33.33;;
70592;SDS011;58294;42.988;20.338;2023-10-19T06:30:24;53.65;;;43.75;;
70592;SDS011;58294;42.988;20.338;2023-10-19T06:32:52;41.00;;;35.00;;
70592;SDS011;58294;42.988;20.338;2023-10-19T06:35:20;39.55;;;33.55;;
70592;SDS011;58294;42.988;20.338;2023-10-19T06:37:47;38.92;;;31.73;;
70592;SDS011;58294;42.988;20.338;2023-10-19T06:40:13;45.13;;;32.30;;
70592;SDS011;58294;42.988;20.338;2023-10-19T06:42:42;39.83;;;35.15;;
70592;SDS011;58294;42.988;20.338;2023-10-19T06:45:12;39.22;;;30.80;;
70592;SDS011;58294;42.988;20.338;2023-10-19T06:47:41;33.67;;;28.00;;
70592;SDS011;58294;42.988;20.338;2023-10-19T06:50:10;39.30;;;34.13;;
70592;SDS011;58294;42.988;20.338;2023-10-19T06:52:41;57.72;;;46.53;;
70592;SDS011;58294;42.988;20.338;2023-10-19T06:55:08;45.10;;;39.60;;
70592;SDS011;58294;42.988;20.338;2023-10-19T06:57:48;40.00;;;35.45;;
70592;SDS011;58294;42.988;20.338;2023-10-19T07:00:16;41.45;;;33.88;;
70592;SDS011;58294;42.988;20.338;2023-10-19T07:02:47;47.38;;;35.78;;
70592;SDS011;58294;42.988;20.338;2023-10-19T07:05:16;46.17;;;35.28;;
70592;SDS011;58294;42.988;20.338;2023-10-19T07:07:44;43.35;;;36.47;;
70592;SDS011;58294;42.988;20.338;2023-10-19T07:10:11;42.33;;;34.03;;
70592;SDS011;58294;42.988;20.338;2023-10-19T07:12:39;43.97;;;32.22;;
70592;SDS011;58294;42.988;20.338;2023-10-19T07:15:07;34.28;;;28.70;;
70592;SDS011;58294;42.988;20.338;2023-10-19T07:17:38;26.58;;;23.38;;
70592;SDS011;58294;42.988;20.338;2023-10-19T07:20:07;29.25;;;23.90;;
70592;SDS011;58294;42.988;20.338;2023-10-19T07:22:37;29.25;;;24.67;;
70592;SDS011;58294;42.988;20.338;2023-10-19T07:25:04;26.38;;;22.48;;
70592;SDS011;58294;42.988;20.338;2023-10-19T07:27:31;27.67;;;23.08;;
70592;SDS011;58294;42.988;20.338;2023-10-19T07:29:59;35.38;;;24.17;;
70592;SDS011;58294;42.988;20.338;2023-10-19T07:32:25;23.85;;;21.13;;
70592;SDS011;58294;42.988;20.338;2023-10-19T07:34:53;21.77;;;18.35;;
70592;SDS011;58294;42.988;20.338;2023-10-19T07:37:20;22.63;;;17.65;;
70592;SDS011;58294;42.988;20.338;2023-10-19T07:39:46;23.77;;;17.83;;
70592;SDS011;58294;42.988;20.338;2023-10-19T07:42:13;19.58;;;17.63;;
70592;SDS011;58294;42.988;20.338;2023-10-19T07:44:39;21.50;;;18.65;;
70592;SDS011;58294;42.988;20.338;2023-10-19T07:47:06;24.33;;;17.70;;
70592;SDS011;58294;42.988;20.338;2023-10-19T07:49:35;18.80;;;15.77;;
70592;SDS011;58294;42.988;20.338;2023-10-19T07:52:04;24.17;;;17.02;;
70592;SDS011;58294;42.988;20.338;2023-10-19T07:54:32;20.45;;;16.55;;
70592;SDS011;58294;42.988;20.338;2023-10-19T07:57:03;18.77;;;16.50;;
70592;SDS011;58294;42.988;20.338;2023-10-19T07:59:32;19.48;;;16.77;;
70592;SDS011;58294;42.988;20.338;2023-10-19T08:01:59;18.50;;;16.65;;
70592;SDS011;58294;42.988;20.338;2023-10-19T08:04:27;21.08;;;18.38;;
70592;SDS011;58294;42.988;20.338;2023-10-19T08:06:54;23.38;;;17.77;;
70592;SDS011;58294;42.988;20.338;2023-10-19T08:09:23;21.85;;;19.45;;
70592;SDS011;58294;42.988;20.338;2023-10-19T08:11:51;25.00;;;22.23;;
70592;SDS011;58294;42.988;20.338;2023-10-19T08:14:24;26.85;;;20.92;;
70592;SDS011;58294;42.988;20.338;2023-10-19T08:16:53;30.20;;;22.48;;
70592;SDS011;58294;42.988;20.338;2023-10-19T08:19:19;25.13;;;21.20;;
70592;SDS011;58294;42.988;20.338;2023-10-19T08:21:45;25.88;;;23.05;;
70592;SDS011;58294;42.988;20.338;2023-10-19T08:24:12;27.33;;;22.63;;
70592;SDS011;58294;42.988;20.338;2023-10-19T08:26:43;26.50;;;22.92;;
70592;SDS011;58294;42.988;20.338;2023-10-19T08:29:12;25.52;;;23.02;;
70592;SDS011;58294;42.988;20.338;2023-10-19T08:31:40;26.95;;;23.90;;
70592;SDS011;58294;42.988;20.338;2023-10-19T08:34:07;34.58;;;25.48;;
70592;SDS011;58294;42.988;20.338;2023-10-19T08:36:39;28.52;;;24.70;;
70592;SDS011;58294;42.988;20.338;2023-10-19T08:39:06;26.60;;;23.77;;
70592;SDS011;58294;42.988;20.338;2023-10-19T08:41:36;29.85;;;23.75;;
70592;SDS011;58294;42.988;20.338;2023-10-19T08:44:05;28.35;;;24.55;;
70592;SDS011;58294;42.988;20.338;2023-10-19T08:46:41;32.10;;;23.98;;
70592;SDS011;58294;42.988;20.338;2023-10-19T08:49:12;29.17;;;23.13;;
70592;SDS011;58294;42.988;20.338;2023-10-19T08:51:39;25.73;;;21.02;;
70592;SDS011;58294;42.988;20.338;2023-10-19T08:54:10;21.15;;;18.80;;
70592;SDS011;58294;42.988;20.338;2023-10-19T08:56:37;19.92;;;16.00;;
70592;SDS011;58294;42.988;20.338;2023-10-19T08:59:04;17.58;;;15.80;;
70592;SDS011;58294;42.988;20.338;2023-10-19T09:01:31;24.63;;;19.90;;
70592;SDS011;58294;42.988;20.338;2023-10-19T09:04:00;26.05;;;23.08;;
70592;SDS011;58294;42.988;20.338;2023-10-19T09:06:26;22.27;;;19.95;;
70592;SDS011;58294;42.988;20.338;2023-10-19T09:08:56;22.25;;;18.08;;
70592;SDS011;58294;42.988;20.338;2023-10-19T09:11:23;14.68;;;13.05;;
70592;SDS011;58294;42.988;20.338;2023-10-19T09:13:53;15.57;;;10.93;;
70592;SDS011;58294;42.988;20.338;2023-10-19T09:16:19;20.30;;;11.48;;
70592;SDS011;58294;42.988;20.338;2023-10-19T09:18:46;15.98;;;12.10;;
70592;SDS011;58294;42.988;20.338;2023-10-19T09:21:16;18.00;;;16.17;;
70592;SDS011;58294;42.988;20.338;2023-10-19T09:23:54;19.70;;;15.93;;
70592;SDS011;58294;42.988;20.338;2023-10-19T09:26:21;21.13;;;16.55;;
70592;SDS011;58294;42.988;20.338;2023-10-19T09:28:49;14.55;;;13.13;;
70592;SDS011;58294;42.988;20.338;2023-10-19T09:31:17;13.65;;;11.90;;
70592;SDS011;58294;42.988;20.338;2023-10-19T09:33:44;12.88;;;11.57;;
70592;SDS011;58294;42.988;20.338;2023-10-19T09:36:12;10.25;;;9.30;;
70592;SDS011;58294;42.988;20.338;2023-10-19T09:38:39;14.70;;;10.70;;
70592;SDS011;58294;42.988;20.338;2023-10-19T09:41:13;11.90;;;10.38;;
70592;SDS011;58294;42.988;20.338;2023-10-19T09:43:43;11.57;;;8.98;;
70592;SDS011;58294;42.988;20.338;2023-10-19T09:46:11;11.23;;;9.98;;
70592;SDS011;58294;42.988;20.338;2023-10-19T09:48:45;14.57;;;12.98;;
70592;SDS011;58294;42.988;20.338;2023-10-19T09:51:12;10.20;;;9.20;;
70592;SDS011;58294;42.988;20.338;2023-10-19T09:57:09;9.35;;;8.43;;
70592;SDS011;58294;42.988;20.338;2023-10-19T09:59:41;21.13;;;12.48;;
70592;SDS011;58294;42.988;20.338;2023-10-19T10:02:11;11.02;;;8.73;;
70592;SDS011;58294;42.988;20.338;2023-10-19T10:04:38;15.43;;;7.88;;
70592;SDS011;58294;42.988;20.338;2023-10-19T10:07:06;10.40;;;8.38;;
70592;SDS011;58294;42.988;20.338;2023-10-19T10:09:36;9.85;;;8.57;;
70592;SDS011;58294;42.988;20.338;2023-10-19T10:12:20;13.52;;;11.55;;
70592;SDS011;58294;42.988;20.338;2023-10-19T10:14:58;14.18;;;12.77;;
70592;SDS011;58294;42.988;20.338;2023-10-19T10:17:38;14.60;;;11.32;;
70592;SDS011;58294;42.988;20.338;2023-10-19T10:22:39;19.45;;;17.40;;
70592;SDS011;58294;42.988;20.338;2023-10-19T10:25:27;20.17;;;18.02;;
70592;SDS011;58294;42.988;20.338;2023-10-19T10:27:54;28.58;;;19.70;;
70592;SDS011;58294;42.988;20.338;2023-10-19T10:30:20;21.45;;;16.58;;
70592;SDS011;58294;42.988;20.338;2023-10-19T10:32:48;32.97;;;24.02;;
70592;SDS011;58294;42.988;20.338;2023-10-19T10:38:20;33.85;;;25.05;;
70592;SDS011;58294;42.988;20.338;2023-10-19T10:40:46;45.25;;;31.45;;
70592;SDS011;58294;42.988;20.338;2023-10-19T10:43:13;42.28;;;30.20;;
70592;SDS011;58294;42.988;20.338;2023-10-19T10:45:38;54.13;;;34.33;;
70592;SDS011;58294;42.988;20.338;2023-10-19T10:48:13;31.92;;;22.90;;
70592;SDS011;58294;42.988;20.338;2023-10-19T10:50:40;34.67;;;19.67;;
70592;SDS011;58294;42.988;20.338;2023-10-19T10:53:10;8.13;;;7.35;;
70592;SDS011;58294;42.988;20.338;2023-10-19T10:55:37;8.80;;;6.28;;
70592;SDS011;58294;42.988;20.338;2023-10-19T10:58:04;19.52;;;7.50;;
70592;SDS011;58294;42.988;20.338;2023-10-19T11:00:30;9.45;;;6.13;;
70592;SDS011;58294;42.988;20.338;2023-10-19T11:03:06;12.45;;;7.88;;
70592;SDS011;58294;42.988;20.338;2023-10-19T11:05:35;9.35;;;6.60;;
70592;SDS011;58294;42.988;20.338;2023-10-19T11:08:05;6.85;;;4.88;;
70592;SDS011;58294;42.988;20.338;2023-10-19T11:10:38;7.70;;;4.93;;
70592;SDS011;58294;42.988;20.338;2023-10-19T11:13:08;3.38;;;3.03;;
70592;SDS011;58294;42.988;20.338;2023-10-19T11:15:35;3.72;;;3.17;;
70592;SDS011;58294;42.988;20.338;2023-10-19T11:18:02;12.85;;;6.95;;
70592;SDS011;58294;42.988;20.338;2023-10-19T11:20:29;6.97;;;3.53;;
70592;SDS011;58294;42.988;20.338;2023-10-19T11:22:55;8.00;;;4.68;;
70592;SDS011;58294;42.988;20.338;2023-10-19T11:25:23;4.18;;;3.60;;
70592;SDS011;58294;42.988;20.338;2023-10-19T11:27:54;3.88;;;2.95;;
70592;SDS011;58294;42.988;20.338;2023-10-19T11:32:55;7.63;;;3.28;;
70592;SDS011;58294;42.988;20.338;2023-10-19T11:35:23;7.68;;;3.33;;
70592;SDS011;58294;42.988;20.338;2023-10-19T11:37:56;8.05;;;3.30;;
70592;SDS011;58294;42.988;20.338;2023-10-19T11:40:24;9.50;;;3.60;;
70592;SDS011;58294;42.988;20.338;2023-10-19T11:42:50;3.75;;;2.95;;
70592;SDS011;58294;42.988;20.338;2023-10-19T11:45:17;9.27;;;3.70;;
70592;SDS011;58294;42.988;20.338;2023-10-19T11:47:44;4.88;;;3.67;;
70592;SDS011;58294;42.988;20.338;2023-10-19T11:50:13;11.80;;;6.35;;
70592;SDS011;58294;42.988;20.338;2023-10-19T11:52:43;5.85;;;3.20;;
70592;SDS011;58294;42.988;20.338;2023-10-19T11:55:11;8.13;;;3.75;;
70592;SDS011;58294;42.988;20.338;2023-10-19T11:57:39;4.03;;;3.30;;
70592;SDS011;58294;42.988;20.338;2023-10-19T12:00:05;15.73;;;7.22;;
70592;SDS011;58294;42.988;20.338;2023-10-19T12:02:38;20.92;;;7.28;;
70592;SDS011;58294;42.988;20.338;2023-10-19T12:05:06;10.15;;;7.03;;
70592;SDS011;58294;42.988;20.338;2023-10-19T12:07:37;9.93;;;6.93;;
70592;SDS011;58294;42.988;20.338;2023-10-19T12:10:04;8.98;;;4.18;;
70592;SDS011;58294;42.988;20.338;2023-10-19T12:12:35;5.78;;;3.90;;
70592;SDS011;58294;42.988;20.338;2023-10-19T12:15:02;6.40;;;4.28;;
70592;SDS011;58294;42.988;20.338;2023-10-19T12:17:30;7.50;;;4.95;;
70592;SDS011;58294;42.988;20.338;2023-10-19T12:19:56;4.78;;;3.45;;
70592;SDS011;58294;42.988;20.338;2023-10-19T12:22:22;5.63;;;3.47;;
70592;SDS011;58294;42.988;20.338;2023-10-19T12:24:50;4.88;;;3.33;;
70592;SDS011;58294;42.988;20.338;2023-10-19T12:27:16;6.57;;;3.60;;
70592;SDS011;58294;42.988;20.338;2023-10-19T12:29:43;5.88;;;4.75;;
70592;SDS011;58294;42.988;20.338;2023-10-19T12:32:09;8.25;;;4.57;;
70592;SDS011;58294;42.988;20.338;2023-10-19T12:34:37;7.80;;;4.22;;
70592;SDS011;58294;42.988;20.338;2023-10-19T12:37:02;7.28;;;4.53;;
70592;SDS011;58294;42.988;20.338;2023-10-19T12:39:28;9.10;;;6.75;;
70592;SDS011;58294;42.988;20.338;2023-10-19T12:42:00;8.30;;;7.03;;
70592;SDS011;58294;42.988;20.338;2023-10-19T12:44:26;11.38;;;6.88;;
70592;SDS011;58294;42.988;20.338;2023-10-19T12:46:55;8.02;;;5.40;;
70592;SDS011;58294;42.988;20.338;2023-10-19T12:49:22;12.73;;;6.28;;
70592;SDS011;58294;42.988;20.338;2023-10-19T12:51:51;10.60;;;7.78;;
70592;SDS011;58294;42.988;20.338;2023-10-19T12:54:17;9.98;;;6.10;;
70592;SDS011;58294;42.988;20.338;2023-10-19T12:56:43;19.58;;;9.88;;
70592;SDS011;58294;42.988;20.338;2023-10-19T12:59:09;14.75;;;9.27;;
70592;SDS011;58294;42.988;20.338;2023-10-19T13:01:35;8.45;;;6.28;;
70592;SDS011;58294;42.988;20.338;2023-10-19T13:04:00;19.08;;;10.05;;
70592;SDS011;58294;42.988;20.338;2023-10-19T13:06:46;15.55;;;7.07;;
70592;SDS011;58294;42.988;20.338;2023-10-19T13:09:13;14.45;;;9.57;;
70592;SDS011;58294;42.988;20.338;2023-10-19T13:11:47;8.02;;;6.45;;
70592;SDS011;58294;42.988;20.338;2023-10-19T13:14:16;14.82;;;7.22;;
70592;SDS011;58294;42.988;20.338;2023-10-19T13:16:43;13.70;;;6.55;;
70592;SDS011;58294;42.988;20.338;2023-10-19T13:19:09;27.40;;;20.45;;
70592;SDS011;58294;42.988;20.338;2023-10-19T13:21:38;25.27;;;17.55;;
70592;SDS011;58294;42.988;20.338;2023-10-19T13:24:07;30.75;;;16.85;;
70592;SDS011;58294;42.988;20.338;2023-10-19T13:26:34;39.25;;;19.73;;
70592;SDS011;58294;42.988;20.338;2023-10-19T13:29:00;19.10;;;12.10;;
70592;SDS011;58294;42.988;20.338;2023-10-19T13:31:27;14.27;;;10.30;;
70592;SDS011;58294;42.988;20.338;2023-10-19T13:33:52;10.60;;;7.45;;
70592;SDS011;58294;42.988;20.338;2023-10-19T13:36:19;13.75;;;8.68;;
70592;SDS011;58294;42.988;20.338;2023-10-19T13:38:45;22.05;;;10.52;;
70592;SDS011;58294;42.988;20.338;2023-10-19T13:41:11;33.50;;;22.55;;
70592;SDS011;58294;42.988;20.338;2023-10-19T13:43:39;65.45;;;50.05;;
70592;SDS011;58294;42.988;20.338;2023-10-19T13:46:05;14.20;;;8.35;;
70592;SDS011;58294;42.988;20.338;2023-10-19T13:48:31;10.55;;;7.18;;
70592;SDS011;58294;42.988;20.338;2023-10-19T13:51:01;13.15;;;7.10;;
70592;SDS011;58294;42.988;20.338;2023-10-19T13:53:37;20.42;;;11.10;;
70592;SDS011;58294;42.988;20.338;2023-10-19T13:56:06;28.40;;;13.82;;
70592;SDS011;58294;42.988;20.338;2023-10-19T13:58:34;51.42;;;34.97;;
70592;SDS011;58294;42.988;20.338;2023-10-19T14:01:00;36.65;;;20.48;;
70592;SDS011;58294;42.988;20.338;2023-10-19T14:03:26;65.47;;;51.00;;
70592;SDS011;58294;42.988;20.338;2023-10-19T14:05:51;36.20;;;20.08;;
70592;SDS011;58294;42.988;20.338;2023-10-19T14:08:21;29.55;;;19.48;;
70592;SDS011;58294;42.988;20.338;2023-10-19T14:10:47;22.33;;;11.85;;
70592;SDS011;58294;42.988;20.338;2023-10-19T14:13:13;34.17;;;19.35;;
70592;SDS011;58294;42.988;20.338;2023-10-19T14:15:39;23.40;;;15.57;;
70592;SDS011;58294;42.988;20.338;2023-10-19T14:18:06;21.95;;;14.07;;
70592;SDS011;58294;42.988;20.338;2023-10-19T14:20:32;24.23;;;16.45;;
70592;SDS011;58294;42.988;20.338;2023-10-19T14:22:59;61.05;;;45.72;;
70592;SDS011;58294;42.988;20.338;2023-10-19T14:25:27;37.22;;;22.30;;
70592;SDS011;58294;42.988;20.338;2023-10-19T14:27:54;34.13;;;20.70;;
70592;SDS011;58294;42.988;20.338;2023-10-19T14:30:31;41.30;;;29.13;;
70592;SDS011;58294;42.988;20.338;2023-10-19T14:32:58;27.50;;;16.80;;
70592;SDS011;58294;42.988;20.338;2023-10-19T14:35:24;27.42;;;17.23;;
70592;SDS011;58294;42.988;20.338;2023-10-19T14:37:51;30.88;;;16.65;;